Terminal Aerodrome Forecast
Issued by NWS

Home | Current Version | Previous Version | Text Only | Print | Product List | Glossary On
Versions: 1 2 3 4 5 6 7 8 9 10 11 12 13 14 15 16 17 18 19 20
000
FTUS41 KGYX 302328
TAFHIE
TAF
KHIE 302328Z 3100/3124 23004KT P6SM BKN025
     FM310030 00000KT 5SM BR SCT025
     FM310600 00000KT 1 1/2SM BR BKN002
     FM311000 26005KT P6SM SCT045=

USA.gov is the U.S. government's official web portal to all federal, state and local government web resources and services.